createdAt,value
2018-09-09T00:01:03.571Z,73.16
2018-09-09T00:03:29.884Z,72.83
2018-09-09T00:05:56.202Z,72.94
2018-09-09T00:08:22.508Z,72.87
2018-09-09T00:10:48.829Z,72.95
2018-09-09T00:13:15.149Z,72.88
2018-09-09T00:15:41.468Z,72.97
2018-09-09T00:18:07.781Z,73.23
2018-09-09T00:20:34.097Z,73.27
2018-09-09T00:23:00.433Z,73.08
2018-09-09T00:25:26.750Z,72.84
2018-09-09T00:27:53.069Z,73.19
2018-09-09T00:30:19.417Z,73.07
2018-09-09T00:32:45.725Z,72.86
2018-09-09T00:35:12.042Z,72.91
2018-09-09T00:37:38.358Z,73.11
2018-09-09T00:40:04.675Z,73.08
2018-09-09T00:42:30.985Z,73.54
2018-09-09T00:44:57.300Z,73.63
2018-09-09T00:47:23.619Z,73.71
2018-09-09T00:49:49.930Z,73.57
2018-09-09T00:52:16.242Z,73.40
2018-09-09T00:54:42.556Z,73.42
2018-09-09T00:57:08.905Z,73.21
2018-09-09T00:59:35.219Z,73.05
2018-09-09T01:02:01.531Z,73.15
2018-09-09T01:04:27.844Z,73.32
2018-09-09T01:06:54.164Z,73.20
2018-09-09T01:09:20.479Z,73.14
2018-09-09T01:11:46.833Z,73.49
2018-09-09T01:14:13.149Z,73.61
2018-09-09T01:16:39.501Z,73.66
2018-09-09T01:19:05.812Z,73.74
2018-09-09T01:21:32.129Z,73.14
2018-09-09T01:23:58.446Z,73.61
2018-09-09T01:26:24.766Z,73.34
2018-09-09T01:28:51.081Z,73.37
2018-09-09T01:31:17.404Z,73.49
2018-09-09T01:33:43.746Z,73.37
2018-09-09T01:36:10.057Z,73.47
2018-09-09T01:38:36.377Z,73.79
2018-09-09T01:41:02.724Z,73.72
2018-09-09T01:43:29.036Z,73.81
2018-09-09T01:45:55.356Z,73.64
2018-09-09T01:48:21.678Z,73.56
2018-09-09T01:50:47.992Z,73.75
2018-09-09T01:53:14.304Z,73.62
2018-09-09T01:55:40.626Z,73.79
2018-09-09T01:58:06.935Z,74.47
2018-09-09T02:00:33.254Z,74.01
2018-09-09T02:02:59.567Z,74.21
2018-09-09T02:05:25.885Z,74.35
2018-09-09T02:07:52.210Z,74.49
2018-09-09T02:10:18.517Z,74.68
2018-09-09T02:12:44.883Z,74.84
2018-09-09T02:15:11.199Z,74.79
2018-09-09T02:17:37.509Z,74.71
2018-09-09T02:20:03.825Z,74.54
2018-09-09T02:22:30.140Z,74.63
2018-09-09T02:24:56.492Z,74.39
2018-09-09T02:27:22.811Z,74.37
2018-09-09T02:29:49.134Z,74.97
2018-09-09T02:32:15.451Z,74.77
2018-09-09T02:34:41.773Z,74.60
2018-09-09T02:37:08.081Z,74.79
2018-09-09T02:39:34.404Z,75.13
2018-09-09T02:42:00.713Z,75.17
2018-09-09T02:44:27.024Z,75.20
2018-09-09T02:46:53.343Z,75.71
2018-09-09T02:49:19.657Z,75.91
2018-09-09T02:51:45.977Z,76.25
2018-09-09T02:54:12.285Z,76.34
2018-09-09T02:56:38.601Z,77.11
2018-09-09T02:59:04.909Z,77.24
2018-09-09T03:01:31.231Z,77.68
2018-09-09T03:03:57.544Z,78.14
2018-09-09T03:06:25.477Z,78.50
2018-09-09T03:08:50.177Z,78.81
2018-09-09T03:11:16.542Z,79.23
2018-09-09T03:13:42.849Z,79.54
2018-09-09T03:16:09.218Z,79.78
2018-09-09T03:18:35.524Z,80.04
2018-09-09T03:21:01.888Z,80.45
2018-09-09T03:23:28.203Z,80.34
2018-09-09T03:25:54.513Z,80.82
2018-09-09T03:28:20.849Z,81.16
2018-09-09T03:30:47.204Z,81.67
2018-09-09T03:33:13.515Z,82.20
2018-09-09T03:35:39.821Z,81.89
2018-09-09T03:38:06.137Z,82.38
2018-09-09T03:40:32.453Z,82.58
2018-09-09T03:42:58.779Z,82.33
2018-09-09T03:45:25.097Z,82.71
2018-09-09T03:47:51.412Z,82.71
2018-09-09T03:50:17.747Z,82.97
2018-09-09T03:52:44.067Z,83.41
2018-09-09T03:55:10.381Z,82.84
2018-09-09T03:57:36.733Z,82.71
2018-09-09T04:00:04.074Z,82.75
2018-09-09T04:02:30.383Z,83.30
2018-09-09T04:04:56.699Z,83.26
2018-09-09T04:07:23.009Z,83.78
2018-09-09T04:09:49.324Z,83.97
2018-09-09T04:12:15.672Z,84.34
2018-09-09T04:14:41.987Z,84.06
2018-09-09T04:17:08.300Z,84.34
2018-09-09T04:19:34.617Z,84.58
2018-09-09T04:22:00.931Z,84.77
2018-09-09T04:24:27.247Z,84.83
2018-09-09T04:26:53.563Z,84.90
2018-09-09T04:29:19.872Z,84.85
2018-09-09T04:31:46.235Z,85.32
2018-09-09T04:34:12.554Z,85.71
2018-09-09T04:36:38.866Z,86.17
2018-09-09T04:39:05.181Z,85.83
2018-09-09T04:41:31.493Z,86.02
2018-09-09T04:43:57.814Z,85.86
2018-09-09T04:46:24.162Z,86.20
2018-09-09T04:48:50.436Z,85.70
2018-09-09T04:51:16.761Z,85.99
2018-09-09T04:53:43.071Z,85.66
2018-09-09T04:56:09.388Z,85.73
2018-09-09T04:58:35.711Z,84.79
2018-09-09T05:01:02.022Z,84.68
2018-09-09T05:03:28.339Z,85.16
2018-09-09T05:05:54.654Z,84.19
2018-09-09T05:08:20.969Z,84.12
2018-09-09T05:10:47.293Z,83.58
2018-09-09T05:13:13.606Z,82.98
2018-09-09T05:15:39.923Z,83.40
2018-09-09T05:18:06.236Z,82.39
2018-09-09T05:20:32.553Z,82.29
2018-09-09T05:22:58.864Z,82.38
2018-09-09T05:25:25.175Z,82.84
2018-09-09T05:27:51.544Z,82.71
2018-09-09T05:30:17.854Z,82.58
2018-09-09T05:32:44.169Z,82.40
2018-09-09T05:35:10.491Z,81.64
2018-09-09T05:37:36.817Z,81.40
2018-09-09T05:40:03.134Z,80.60
2018-09-09T05:42:29.519Z,80.46
2018-09-09T05:44:55.757Z,80.25
2018-09-09T05:47:22.068Z,80.56
2018-09-09T05:49:48.386Z,80.53
2018-09-09T05:52:14.700Z,80.45
2018-09-09T05:54:41.017Z,79.73
2018-09-09T05:57:07.337Z,79.98
2018-09-09T05:59:33.652Z,79.63
2018-09-09T06:01:59.966Z,79.62
2018-09-09T06:04:26.281Z,79.23
2018-09-09T06:06:52.600Z,78.78
2018-09-09T06:09:18.919Z,77.69
2018-09-09T06:11:45.227Z,76.78
2018-09-09T06:14:11.551Z,76.62
2018-09-09T06:16:37.863Z,76.57
2018-09-09T06:19:04.183Z,76.00
2018-09-09T06:21:30.498Z,75.45
2018-09-09T06:23:56.818Z,74.27
2018-09-09T06:26:23.135Z,74.44
2018-09-09T06:28:49.443Z,74.48
2018-09-09T06:31:15.755Z,74.20
2018-09-09T06:33:42.140Z,74.10
2018-09-09T06:36:08.375Z,73.20
2018-09-09T06:38:34.689Z,73.28
2018-09-09T06:41:00.997Z,73.18
2018-09-09T06:43:27.312Z,69.36
2018-09-09T06:45:53.628Z,72.18
2018-09-09T06:48:21.887Z,75.13
2018-09-09T06:50:48.205Z,72.33
2018-09-09T06:53:14.521Z,69.90
2018-09-09T06:55:40.831Z,71.02
2018-09-09T06:58:07.149Z,73.98
2018-09-09T07:00:33.462Z,73.34
2018-09-09T07:02:59.826Z,71.62
2018-09-09T07:05:26.531Z,75.41
2018-09-09T07:07:52.876Z,76.92
2018-09-09T07:10:19.155Z,77.06
2018-09-09T07:12:45.473Z,72.48
2018-09-09T07:15:11.793Z,75.12
2018-09-09T07:17:38.110Z,73.05
2018-09-09T07:20:04.445Z,66.70
2018-09-09T07:22:30.787Z,64.44
2018-09-09T07:24:57.073Z,61.90
2018-09-09T07:27:23.392Z,61.94
2018-09-09T07:29:49.757Z,62.93
2018-09-09T07:32:16.071Z,62.02
2018-09-09T07:34:42.379Z,66.79
2018-09-09T07:37:08.697Z,71.25
2018-09-09T07:39:35.059Z,68.59
2018-09-09T07:42:01.369Z,72.12
2018-09-09T07:44:27.699Z,74.86
2018-09-09T07:46:54.023Z,76.23
2018-09-09T07:49:20.342Z,69.41
2018-09-09T07:51:46.663Z,73.47
2018-09-09T07:54:12.987Z,75.91
2018-09-09T07:56:39.314Z,75.85
2018-09-09T07:59:05.626Z,76.43
2018-09-09T08:01:31.947Z,69.73
2018-09-09T08:03:58.259Z,59.73
2018-09-09T08:06:24.573Z,58.00
2018-09-09T08:08:50.886Z,60.12
2018-09-09T08:11:17.205Z,65.40
2018-09-09T08:13:43.523Z,68.35
2018-09-09T08:16:09.838Z,70.87
2018-09-09T08:18:36.203Z,73.98
2018-09-09T08:21:02.509Z,75.14
2018-09-09T08:23:28.827Z,66.75
2018-09-09T08:25:55.150Z,68.03
2018-09-09T08:28:21.456Z,71.61
2018-09-09T08:30:47.769Z,74.72
2018-09-09T08:33:14.087Z,76.33
2018-09-09T08:35:40.396Z,68.61
2018-09-09T08:38:06.721Z,68.76
2018-09-09T08:40:33.040Z,71.50
2018-09-09T08:42:59.358Z,72.71
2018-09-09T08:45:25.737Z,74.31
2018-09-09T08:47:51.994Z,75.93
2018-09-09T08:50:18.315Z,76.26
2018-09-09T08:52:44.680Z,75.33
2018-09-09T08:55:10.989Z,75.49
2018-09-09T08:57:37.323Z,73.66
2018-09-09T09:00:04.056Z,72.21
2018-09-09T09:02:30.367Z,73.07
2018-09-09T09:04:56.682Z,71.00
2018-09-09T09:07:23.029Z,71.51
2018-09-09T09:09:49.354Z,71.24
2018-09-09T09:12:15.675Z,71.39
2018-09-09T09:14:42.040Z,68.81
2018-09-09T09:17:08.316Z,69.22
2018-09-09T09:19:34.639Z,69.65
2018-09-09T09:22:01.005Z,63.17
2018-09-09T09:24:27.353Z,64.48
2018-09-09T09:26:53.753Z,64.39
2018-09-09T09:29:20.027Z,65.63
2018-09-09T09:31:46.367Z,66.89
2018-09-09T09:34:12.675Z,68.08
2018-09-09T09:36:38.993Z,68.67
2018-09-09T09:39:05.309Z,69.36
2018-09-09T09:41:31.626Z,69.77
2018-09-09T09:43:57.948Z,68.79
2018-09-09T09:46:24.357Z,68.40
2018-09-09T09:48:50.667Z,68.44
2018-09-09T09:51:17.078Z,68.52
2018-09-09T09:53:43.400Z,68.21
2018-09-09T09:56:09.710Z,67.13
2018-09-09T09:58:36.034Z,67.98
2018-09-09T10:01:02.376Z,69.14
2018-09-09T10:03:28.707Z,67.40
2018-09-09T10:05:55.014Z,67.32
2018-09-09T10:08:21.342Z,67.38
2018-09-09T10:10:47.657Z,67.19
2018-09-09T10:13:13.975Z,66.22
2018-09-09T10:15:40.288Z,60.84
2018-09-09T10:18:06.657Z,62.66
2018-09-09T10:20:32.951Z,62.06
2018-09-09T10:22:59.273Z,62.42
2018-09-09T10:25:25.596Z,62.10
2018-09-09T10:27:51.924Z,62.91
2018-09-09T10:30:18.239Z,63.90
2018-09-09T10:32:44.555Z,63.41
2018-09-09T10:35:10.864Z,63.69
2018-09-09T10:37:37.240Z,63.14
2018-09-09T10:40:03.554Z,62.84
2018-09-09T10:42:29.874Z,63.01
2018-09-09T10:44:56.195Z,64.78
2018-09-09T10:47:22.508Z,63.93
2018-09-09T10:49:48.832Z,64.30
2018-09-09T10:52:15.140Z,63.66
2018-09-09T10:54:41.462Z,64.98
2018-09-09T10:57:07.784Z,64.32
2018-09-09T10:59:34.092Z,63.05
2018-09-09T11:02:00.423Z,63.44
2018-09-09T11:04:26.791Z,64.33
2018-09-09T11:06:53.150Z,64.81
2018-09-09T11:09:19.418Z,64.63
2018-09-09T11:11:45.731Z,63.45
2018-09-09T11:14:12.051Z,61.73
2018-09-09T11:16:38.378Z,61.94
2018-09-09T11:19:04.851Z,63.29
2018-09-09T11:21:31.067Z,61.80
2018-09-09T11:23:57.423Z,62.72
2018-09-09T11:26:23.707Z,62.32
2018-09-09T11:28:50.035Z,62.08
2018-09-09T11:31:16.355Z,62.03
2018-09-09T11:33:42.668Z,62.17
2018-09-09T11:36:09.030Z,62.57
2018-09-09T11:38:35.306Z,61.50
2018-09-09T11:41:01.668Z,60.45
2018-09-09T11:43:27.993Z,61.64
2018-09-09T11:45:54.317Z,61.50
2018-09-09T11:48:20.644Z,62.01
2018-09-09T11:50:46.966Z,60.09
2018-09-09T11:53:13.376Z,58.92
2018-09-09T11:55:39.632Z,60.07
2018-09-09T11:58:05.949Z,59.27
2018-09-09T12:00:32.272Z,60.31
2018-09-09T12:02:58.596Z,61.24
2018-09-09T12:05:24.903Z,62.65
2018-09-09T12:07:51.226Z,64.41
2018-09-09T12:10:17.540Z,64.77
2018-09-09T12:12:43.912Z,64.40
2018-09-09T12:15:10.233Z,64.76
2018-09-09T12:17:36.553Z,66.04
2018-09-09T12:20:02.877Z,66.36
2018-09-09T12:22:29.186Z,66.77
2018-09-09T12:24:55.509Z,68.12
2018-09-09T12:27:21.823Z,68.35
2018-09-09T12:29:48.136Z,68.22
2018-09-09T12:32:14.509Z,69.66
2018-09-09T12:34:40.822Z,70.42
2018-09-09T12:37:07.134Z,68.61
2018-09-09T12:39:33.449Z,68.54
2018-09-09T12:41:59.761Z,68.41
2018-09-09T12:44:26.130Z,70.05
2018-09-09T12:46:52.470Z,71.66
2018-09-09T12:49:18.796Z,73.00
2018-09-09T12:51:45.117Z,73.49
2018-09-09T12:54:11.443Z,74.09
2018-09-09T12:56:37.774Z,73.75
2018-09-09T12:59:04.088Z,73.86
2018-09-09T13:01:30.409Z,73.56
2018-09-09T13:03:56.766Z,74.92
2018-09-09T13:06:23.081Z,75.17
2018-09-09T13:08:49.411Z,75.30
2018-09-09T13:11:15.739Z,75.60
2018-09-09T13:13:42.074Z,76.11
2018-09-09T13:16:08.388Z,77.72
2018-09-09T13:18:34.727Z,78.51
2018-09-09T13:21:01.088Z,78.02
2018-09-09T13:23:27.373Z,78.05
2018-09-09T13:25:53.690Z,77.80
2018-09-09T13:28:20.005Z,78.74
2018-09-09T13:30:46.402Z,79.31
2018-09-09T13:33:12.713Z,80.04
2018-09-09T13:35:39.043Z,80.89
2018-09-09T13:38:05.365Z,81.53
2018-09-09T13:40:31.700Z,82.05
2018-09-09T13:42:58.021Z,82.55
2018-09-09T13:45:24.381Z,80.89
2018-09-09T13:47:50.698Z,79.64
2018-09-09T13:50:17.019Z,76.10
2018-09-09T13:52:43.357Z,77.28
2018-09-09T13:55:09.669Z,73.06
2018-09-09T13:57:35.997Z,73.18
2018-09-09T14:00:02.636Z,72.82
2018-09-09T14:02:28.960Z,71.58
2018-09-09T14:04:55.274Z,69.11
2018-09-09T14:07:21.595Z,68.39
2018-09-09T14:09:47.963Z,68.99
2018-09-09T14:12:14.243Z,67.98
2018-09-09T14:14:40.557Z,69.60
2018-09-09T14:17:06.874Z,69.73
2018-09-09T14:19:33.198Z,70.17
2018-09-09T14:21:59.517Z,67.34
2018-09-09T14:24:25.836Z,68.38
2018-09-09T14:26:52.190Z,71.09
2018-09-09T14:29:18.571Z,68.95
2018-09-09T14:31:44.822Z,68.89
2018-09-09T14:34:11.210Z,67.94
2018-09-09T14:36:37.495Z,66.42
2018-09-09T14:39:04.009Z,65.98
2018-09-09T14:41:31.700Z,64.94
2018-09-09T14:43:56.783Z,65.70
2018-09-09T14:46:23.104Z,64.36
2018-09-09T14:48:49.418Z,63.52
2018-09-09T14:51:15.735Z,62.65
2018-09-09T14:53:42.055Z,62.17
2018-09-09T14:56:08.400Z,62.88
2018-09-09T14:58:34.747Z,61.10
2018-09-09T15:01:01.058Z,59.90
2018-09-09T15:03:27.426Z,59.05
2018-09-09T15:05:53.701Z,58.68
2018-09-09T15:08:20.024Z,59.70
2018-09-09T15:10:46.392Z,58.58
2018-09-09T15:13:12.713Z,59.04
2018-09-09T15:15:39.024Z,58.75
2018-09-09T15:18:05.398Z,56.88
2018-09-09T15:20:34.732Z,56.50
2018-09-09T15:23:01.062Z,56.18
2018-09-09T15:25:27.374Z,57.37
2018-09-09T15:27:53.705Z,56.36
2018-09-09T15:30:20.042Z,56.28
2018-09-09T15:32:46.395Z,54.52
2018-09-09T15:35:12.743Z,56.02
2018-09-09T15:40:05.439Z,54.09
2018-09-09T15:42:31.740Z,53.87
2018-09-09T15:44:58.055Z,52.49
2018-09-09T15:47:24.385Z,51.97
2018-09-09T15:49:50.719Z,51.71
2018-09-09T15:52:17.127Z,52.93
2018-09-09T15:54:43.392Z,51.87
2018-09-09T15:57:09.689Z,51.81
2018-09-09T15:59:36.010Z,51.21
2018-09-09T16:02:02.380Z,51.74
2018-09-09T16:04:28.828Z,51.32
2018-09-09T16:06:55.144Z,51.43
2018-09-09T16:09:21.457Z,51.52
2018-09-09T16:11:47.833Z,51.48
2018-09-09T16:14:14.098Z,51.39
2018-09-09T16:16:40.446Z,51.04
2018-09-09T16:19:06.790Z,51.56
2018-09-09T16:21:33.141Z,51.63
2018-09-09T16:23:59.471Z,51.56
2018-09-09T16:26:25.784Z,51.59
2018-09-09T16:28:52.113Z,51.25
2018-09-09T16:31:18.448Z,50.87
2018-09-09T16:33:44.790Z,51.22
2018-09-09T16:36:11.105Z,51.58
2018-09-09T16:38:37.434Z,51.33
2018-09-09T16:41:03.766Z,50.93
2018-09-09T16:43:30.098Z,50.79
2018-09-09T16:45:56.429Z,50.78
2018-09-09T16:48:22.740Z,51.05
2018-09-09T16:50:49.079Z,51.13
2018-09-09T16:53:15.411Z,51.33
2018-09-09T16:55:41.737Z,51.47
2018-09-09T16:58:08.077Z,51.46
2018-09-09T17:00:34.408Z,51.66
2018-09-09T17:03:00.722Z,51.93
2018-09-09T17:05:27.038Z,51.93
2018-09-09T17:07:53.367Z,51.40
2018-09-09T17:10:19.681Z,51.87
2018-09-09T17:12:46.009Z,52.07
2018-09-09T17:15:12.330Z,52.50
2018-09-09T17:17:38.644Z,52.65
2018-09-09T17:20:04.955Z,52.51
2018-09-09T17:22:31.286Z,52.92
2018-09-09T17:24:57.615Z,53.20
2018-09-09T17:27:23.905Z,53.23
2018-09-09T17:29:50.217Z,53.51
2018-09-09T17:32:16.526Z,53.61
2018-09-09T17:34:42.819Z,53.72
2018-09-09T17:37:09.120Z,53.64
2018-09-09T17:39:35.433Z,53.67
2018-09-09T17:42:01.804Z,53.83
2018-09-09T17:44:28.119Z,53.90
2018-09-09T17:46:54.448Z,53.92
2018-09-09T17:49:20.772Z,54.00
2018-09-09T17:51:47.092Z,53.87
2018-09-09T17:54:13.422Z,53.84
2018-09-09T17:56:39.735Z,54.15
2018-09-09T17:59:06.053Z,53.78
2018-09-09T18:01:32.376Z,54.47
2018-09-09T18:03:58.697Z,54.44
2018-09-09T18:06:25.008Z,54.23
2018-09-09T18:08:51.324Z,54.28
2018-09-09T18:11:17.647Z,54.62
2018-09-09T18:13:43.955Z,54.59
2018-09-09T18:16:10.275Z,54.86
2018-09-09T18:18:36.594Z,55.14
2018-09-09T18:21:02.908Z,55.36
2018-09-09T18:23:29.221Z,55.50
2018-09-09T18:25:55.563Z,55.33
2018-09-09T18:28:21.877Z,55.50
2018-09-09T18:30:48.229Z,55.61
2018-09-09T18:33:14.541Z,55.91
2018-09-09T18:35:40.868Z,55.41
2018-09-09T18:38:07.186Z,55.48
2018-09-09T18:40:33.497Z,55.83
2018-09-09T18:42:59.819Z,55.55
2018-09-09T18:45:26.198Z,56.05
2018-09-09T18:47:52.664Z,55.97
2018-09-09T18:50:19.099Z,56.04
2018-09-09T18:52:45.424Z,55.94
2018-09-09T18:55:11.863Z,55.84
2018-09-09T18:57:38.173Z,55.71
2018-09-09T19:00:04.721Z,55.64
2018-09-09T19:02:31.059Z,55.68
2018-09-09T19:04:57.493Z,55.67
2018-09-09T19:07:23.894Z,55.89
2018-09-09T19:09:50.360Z,55.75
2018-09-09T19:12:16.723Z,55.82
2018-09-09T19:14:43.041Z,55.85
2018-09-09T19:17:09.368Z,55.82
2018-09-09T19:19:35.689Z,55.55
2018-09-09T19:22:02.034Z,55.12
2018-09-09T19:24:28.311Z,55.13
2018-09-09T19:26:54.629Z,54.79
2018-09-09T19:29:20.945Z,55.06
2018-09-09T19:31:47.273Z,54.98
2018-09-09T19:34:13.581Z,55.70
2018-09-09T19:36:39.938Z,55.19
2018-09-09T19:39:06.219Z,55.24
2018-09-09T19:41:32.540Z,55.19
2018-09-09T19:43:58.923Z,55.39
2018-09-09T19:46:25.200Z,55.29
2018-09-09T19:48:51.512Z,55.31
2018-09-09T19:51:17.823Z,55.35
2018-09-09T19:53:44.132Z,55.15
2018-09-09T19:56:10.442Z,55.13
2018-09-09T19:58:36.764Z,55.06
2018-09-09T20:01:03.077Z,55.22
2018-09-09T20:03:29.399Z,55.50
2018-09-09T20:05:55.720Z,55.21
2018-09-09T20:08:22.038Z,55.49
2018-09-09T20:10:48.394Z,55.61
2018-09-09T20:13:14.707Z,55.39
2018-09-09T20:15:41.025Z,55.42
2018-09-09T20:18:07.336Z,55.67
2018-09-09T20:20:33.648Z,55.51
2018-09-09T20:22:59.978Z,55.78
2018-09-09T20:25:26.294Z,55.77
2018-09-09T20:27:52.608Z,55.83
2018-09-09T20:30:18.921Z,56.04
2018-09-09T20:32:45.296Z,56.04
2018-09-09T20:35:11.571Z,56.14
2018-09-09T20:37:37.884Z,55.93
2018-09-09T20:40:04.200Z,55.86
2018-09-09T20:42:30.524Z,55.71
2018-09-09T20:44:56.847Z,55.61
2018-09-09T20:47:23.182Z,55.62
2018-09-09T20:49:49.478Z,55.63
2018-09-09T20:52:15.795Z,55.39
2018-09-09T20:54:42.110Z,55.33
2018-09-09T20:57:08.482Z,55.48
2018-09-09T20:59:34.816Z,55.38
2018-09-09T21:02:01.167Z,55.38
2018-09-09T21:04:27.485Z,55.33
2018-09-09T21:06:53.834Z,55.72
2018-09-09T21:09:20.152Z,55.33
2018-09-09T21:11:46.464Z,55.26
2018-09-09T21:14:12.793Z,55.46
2018-09-09T21:16:39.244Z,55.34
2018-09-09T21:19:05.508Z,55.80
2018-09-09T21:21:31.863Z,56.00
2018-09-09T21:23:58.190Z,55.67
2018-09-09T21:26:24.523Z,55.52
2018-09-09T21:28:50.840Z,55.37
2018-09-09T21:31:17.172Z,55.45
2018-09-09T21:33:43.503Z,55.85
2018-09-09T21:36:09.831Z,55.96
2018-09-09T21:38:36.159Z,55.68
2018-09-09T21:41:02.472Z,56.01
2018-09-09T21:43:28.786Z,56.12
2018-09-09T21:45:55.140Z,56.41
2018-09-09T21:48:21.452Z,56.82
2018-09-09T21:50:47.799Z,56.71
2018-09-09T21:53:14.128Z,57.07
2018-09-09T21:55:40.459Z,57.15
2018-09-09T21:58:06.770Z,57.36
2018-09-09T22:00:33.143Z,57.38
2018-09-09T22:02:59.467Z,57.65
2018-09-09T22:05:25.784Z,57.44
2018-09-09T22:07:52.097Z,57.53
2018-09-09T22:10:18.437Z,57.85
2018-09-09T22:12:44.774Z,58.06
2018-09-09T22:15:11.095Z,58.11
2018-09-09T22:17:37.413Z,58.43
2018-09-09T22:20:03.735Z,58.49
2018-09-09T22:22:30.077Z,58.60
2018-09-09T22:24:56.403Z,58.89
2018-09-09T22:27:22.725Z,58.53
2018-09-09T22:29:49.043Z,58.19
2018-09-09T22:32:15.355Z,58.38
2018-09-09T22:34:41.670Z,58.79
2018-09-09T22:37:07.984Z,58.72
2018-09-09T22:39:34.299Z,58.58
2018-09-09T22:42:00.614Z,58.51
2018-09-09T22:44:26.924Z,58.49
2018-09-09T22:46:53.232Z,58.83
2018-09-09T22:49:19.539Z,58.84
2018-09-09T22:51:45.858Z,58.95
2018-09-09T22:54:12.184Z,59.07
2018-09-09T22:56:38.509Z,59.26
2018-09-09T22:59:04.839Z,59.74
2018-09-09T23:01:31.154Z,59.81
2018-09-09T23:03:57.464Z,59.48
2018-09-09T23:06:23.783Z,59.53
2018-09-09T23:08:50.092Z,59.75
2018-09-09T23:11:16.398Z,60.04
2018-09-09T23:13:42.708Z,59.84
2018-09-09T23:16:09.020Z,59.95
2018-09-09T23:18:35.337Z,60.22
2018-09-09T23:21:01.652Z,60.14
2018-09-09T23:23:27.977Z,60.26
2018-09-09T23:25:54.291Z,60.77
2018-09-09T23:28:20.599Z,60.79
2018-09-09T23:30:46.927Z,60.51
2018-09-09T23:33:13.251Z,60.45
2018-09-09T23:35:39.569Z,60.92
2018-09-09T23:38:05.892Z,60.86
2018-09-09T23:40:32.211Z,61.34
2018-09-09T23:42:58.564Z,61.07
2018-09-09T23:45:24.874Z,61.71
2018-09-09T23:47:51.197Z,61.84
2018-09-09T23:50:17.517Z,61.71
2018-09-09T23:52:43.830Z,61.81
2018-09-09T23:55:10.145Z,61.59
2018-09-09T23:57:36.463Z,61.55
